createdAt,value
2023-05-19T00:01:05.909Z,80.13
2023-05-19T00:06:06.647Z,80.14
2023-05-19T00:11:01.422Z,81.08
2023-05-19T00:15:55.710Z,81.17
2023-05-19T00:20:47.453Z,81.39
2023-05-19T00:25:39.197Z,82.42
2023-05-19T00:30:31.766Z,82.71
2023-05-19T00:35:24.494Z,82.47
2023-05-19T00:40:16.619Z,82.89
2023-05-19T00:45:08.910Z,82.72
2023-05-19T00:50:00.798Z,83.38
2023-05-19T00:54:53.899Z,83.43
2023-05-19T00:59:45.672Z,83.40
2023-05-19T01:04:41.633Z,84.29
2023-05-19T01:09:33.951Z,84.98
2023-05-19T01:14:25.713Z,84.87
2023-05-19T01:19:53.919Z,85.56
2023-05-19T01:25:12.914Z,85.92
2023-05-19T01:30:27.148Z,86.44
2023-05-19T01:35:20.342Z,86.12
2023-05-19T01:40:12.759Z,87.79
2023-05-19T01:45:06.811Z,87.30
2023-05-19T01:49:58.558Z,87.30
2023-05-19T01:54:50.379Z,88.09
2023-05-19T02:00:26.523Z,88.24
2023-05-19T02:05:38.216Z,88.07
2023-05-19T02:10:33.129Z,88.82
2023-05-19T02:15:33.102Z,87.87
2023-05-19T02:20:24.843Z,89.02
2023-05-19T02:25:16.680Z,89.01
2023-05-19T02:30:09.666Z,89.51
2023-05-19T02:35:01.404Z,89.23
2023-05-19T02:39:53.146Z,88.92
2023-05-19T02:44:45.042Z,89.74
2023-05-19T02:49:36.795Z,89.18
2023-05-19T02:54:30.546Z,89.73
2023-05-19T02:59:25.374Z,89.39
2023-05-19T03:04:20.020Z,89.88
2023-05-19T03:09:11.736Z,90.23
2023-05-19T03:14:03.451Z,89.87
2023-05-19T03:18:55.848Z,89.97
2023-05-19T03:23:47.609Z,90.46
2023-05-19T03:28:39.367Z,90.07
2023-05-19T03:33:31.376Z,90.14
2023-05-19T03:38:23.508Z,89.95
2023-05-19T03:43:16.092Z,90.00
2023-05-19T03:48:07.993Z,89.94
2023-05-19T03:53:00.390Z,89.66
2023-05-19T03:57:55.005Z,90.74
2023-05-19T04:02:47.763Z,90.83
2023-05-19T04:07:39.676Z,91.06
2023-05-19T04:12:32.252Z,90.44
2023-05-19T04:17:33.850Z,90.54
2023-05-19T04:22:27.814Z,90.37
2023-05-19T04:37:35.177Z,90.04
2023-05-19T04:47:38.725Z,89.62
2023-05-19T04:57:37.951Z,89.32
2023-05-19T05:02:41.072Z,89.35
2023-05-19T05:07:32.842Z,88.76
2023-05-19T05:12:25.029Z,87.46
2023-05-19T05:22:23.445Z,88.60
2023-05-19T05:27:15.202Z,87.72
2023-05-19T05:32:07.923Z,87.89
2023-05-19T05:36:59.689Z,88.74
2023-05-19T05:41:51.452Z,88.37
2023-05-19T05:52:04.960Z,88.59
2023-05-19T06:17:47.273Z,89.83
2023-05-19T06:22:47.073Z,89.38
2023-05-19T06:32:46.367Z,88.44
2023-05-19T06:37:39.364Z,88.57
2023-05-19T06:47:43.888Z,87.24
2023-05-19T06:52:36.191Z,86.90
2023-05-19T06:57:31.682Z,86.85
2023-05-19T07:07:58.688Z,86.39
2023-05-19T07:18:12.027Z,85.31
2023-05-19T07:28:15.233Z,87.68
2023-05-19T07:43:23.434Z,84.56
2023-05-19T08:08:49.892Z,81.55
2023-05-19T12:47:52.721Z,62.17
2023-05-19T13:35:06.275Z,68.46
2023-05-19T14:05:40.619Z,69.23
2023-05-19T15:32:29.876Z,69.54
2023-05-19T16:03:18.238Z,70.16
2023-05-19T16:13:16.483Z,70.74
2023-05-19T16:18:10.905Z,70.76
2023-05-19T16:23:06.792Z,72.08
2023-05-19T16:48:23.203Z,73.08
2023-05-19T16:53:18.809Z,73.27
2023-05-19T17:18:42.680Z,74.97
2023-05-19T17:44:06.875Z,76.44
2023-05-19T17:59:14.968Z,76.96
2023-05-19T18:04:16.208Z,76.53
2023-05-19T18:09:13.089Z,75.98
2023-05-19T18:34:36.122Z,75.08
2023-05-19T18:39:29.348Z,74.68
2023-05-19T18:49:28.773Z,75.05
2023-05-19T18:54:31.231Z,74.98
2023-05-19T19:04:34.876Z,75.59
2023-05-19T19:09:29.440Z,75.78
2023-05-19T20:21:07.797Z,78.13
2023-05-19T20:51:34.555Z,78.94
2023-05-19T20:56:30.563Z,79.15
2023-05-19T22:23:56.526Z,85.09
2023-05-19T23:14:54.379Z,86.81
2023-05-19T23:40:26.587Z,89.38
2023-05-19T23:45:18.348Z,88.47
2023-05-19T23:55:20.060Z,88.42
